sensor_id;sensor_type;location;lat;lon;timestamp;P1;durP1;ratioP1;P2;durP2;ratioP2
3653;SDS011;70277;54.302;10.064;2023-07-24T00:00:02;12.25;;;8.02;;
3653;SDS011;70277;54.302;10.064;2023-07-24T00:02:29;10.90;;;7.68;;
3653;SDS011;70277;54.302;10.064;2023-07-24T00:04:55;12.50;;;7.63;;
3653;SDS011;70277;54.302;10.064;2023-07-24T00:07:22;10.18;;;7.88;;
3653;SDS011;70277;54.302;10.064;2023-07-24T00:09:49;12.57;;;8.00;;
3653;SDS011;70277;54.302;10.064;2023-07-24T00:12:15;12.43;;;8.00;;
3653;SDS011;70277;54.302;10.064;2023-07-24T00:14:42;12.75;;;8.00;;
3653;SDS011;70277;54.302;10.064;2023-07-24T00:17:08;11.38;;;8.05;;
3653;SDS011;70277;54.302;10.064;2023-07-24T00:19:35;10.25;;;7.60;;
3653;SDS011;70277;54.302;10.064;2023-07-24T00:22:01;12.00;;;8.57;;
3653;SDS011;70277;54.302;10.064;2023-07-24T00:24:29;11.85;;;7.45;;
3653;SDS011;70277;54.302;10.064;2023-07-24T00:26:56;17.10;;;8.35;;
3653;SDS011;70277;54.302;10.064;2023-07-24T00:29:23;13.05;;;7.20;;
3653;SDS011;70277;54.302;10.064;2023-07-24T00:31:49;8.20;;;7.40;;
3653;SDS011;70277;54.302;10.064;2023-07-24T00:34:16;11.00;;;7.50;;
3653;SDS011;70277;54.302;10.064;2023-07-24T00:36:42;11.52;;;7.00;;
3653;SDS011;70277;54.302;10.064;2023-07-24T00:39:08;8.80;;;7.45;;
3653;SDS011;70277;54.302;10.064;2023-07-24T00:41:35;11.65;;;6.85;;
3653;SDS011;70277;54.302;10.064;2023-07-24T00:44:01;8.65;;;6.90;;
3653;SDS011;70277;54.302;10.064;2023-07-24T00:46:28;9.60;;;7.30;;
3653;SDS011;70277;54.302;10.064;2023-07-24T00:48:59;14.18;;;6.85;;
3653;SDS011;70277;54.302;10.064;2023-07-24T00:51:27;9.57;;;7.95;;
3653;SDS011;70277;54.302;10.064;2023-07-24T00:53:54;9.23;;;7.63;;
3653;SDS011;70277;54.302;10.064;2023-07-24T00:56:22;12.30;;;7.65;;
3653;SDS011;70277;54.302;10.064;2023-07-24T00:58:49;20.85;;;8.00;;
3653;SDS011;70277;54.302;10.064;2023-07-24T01:01:16;11.68;;;7.55;;
3653;SDS011;70277;54.302;10.064;2023-07-24T01:03:44;11.70;;;7.72;;
3653;SDS011;70277;54.302;10.064;2023-07-24T01:06:10;12.88;;;7.90;;
3653;SDS011;70277;54.302;10.064;2023-07-24T01:08:37;10.32;;;8.43;;
3653;SDS011;70277;54.302;10.064;2023-07-24T01:11:05;14.43;;;8.45;;
3653;SDS011;70277;54.302;10.064;2023-07-24T01:13:40;15.98;;;7.60;;
3653;SDS011;70277;54.302;10.064;2023-07-24T01:16:13;12.57;;;7.80;;
3653;SDS011;70277;54.302;10.064;2023-07-24T01:18:42;14.32;;;8.13;;
3653;SDS011;70277;54.302;10.064;2023-07-24T01:21:10;11.63;;;8.18;;
3653;SDS011;70277;54.302;10.064;2023-07-24T01:26:21;11.82;;;7.45;;
3653;SDS011;70277;54.302;10.064;2023-07-24T01:28:50;12.88;;;8.13;;
3653;SDS011;70277;54.302;10.064;2023-07-24T01:31:16;17.60;;;7.72;;
3653;SDS011;70277;54.302;10.064;2023-07-24T01:33:43;11.73;;;7.82;;
3653;SDS011;70277;54.302;10.064;2023-07-24T01:36:10;10.55;;;8.00;;
3653;SDS011;70277;54.302;10.064;2023-07-24T01:38:38;17.52;;;8.52;;
3653;SDS011;70277;54.302;10.064;2023-07-24T01:41:06;12.10;;;7.40;;
3653;SDS011;70277;54.302;10.064;2023-07-24T01:43:32;14.20;;;8.35;;
3653;SDS011;70277;54.302;10.064;2023-07-24T01:45:59;15.45;;;8.50;;
3653;SDS011;70277;54.302;10.064;2023-07-24T01:48:25;17.00;;;8.55;;
3653;SDS011;70277;54.302;10.064;2023-07-24T01:50:52;13.15;;;8.38;;
3653;SDS011;70277;54.302;10.064;2023-07-24T01:53:18;15.00;;;8.25;;
3653;SDS011;70277;54.302;10.064;2023-07-24T01:55:45;13.02;;;8.02;;
3653;SDS011;70277;54.302;10.064;2023-07-24T01:58:11;12.13;;;7.82;;
3653;SDS011;70277;54.302;10.064;2023-07-24T02:00:38;13.02;;;7.93;;
3653;SDS011;70277;54.302;10.064;2023-07-24T02:03:04;14.95;;;8.15;;
3653;SDS011;70277;54.302;10.064;2023-07-24T02:05:31;16.63;;;8.40;;
3653;SDS011;70277;54.302;10.064;2023-07-24T02:07:58;13.50;;;7.68;;
3653;SDS011;70277;54.302;10.064;2023-07-24T02:10:24;13.63;;;8.20;;
3653;SDS011;70277;54.302;10.064;2023-07-24T02:12:51;13.90;;;8.35;;
3653;SDS011;70277;54.302;10.064;2023-07-24T02:15:17;17.23;;;8.60;;
3653;SDS011;70277;54.302;10.064;2023-07-24T02:17:43;16.80;;;8.57;;
3653;SDS011;70277;54.302;10.064;2023-07-24T02:20:10;17.05;;;9.32;;
3653;SDS011;70277;54.302;10.064;2023-07-24T02:22:37;14.85;;;8.75;;
3653;SDS011;70277;54.302;10.064;2023-07-24T02:25:03;15.27;;;8.68;;
3653;SDS011;70277;54.302;10.064;2023-07-24T02:27:30;13.13;;;8.55;;
3653;SDS011;70277;54.302;10.064;2023-07-24T02:32:27;14.82;;;8.82;;
3653;SDS011;70277;54.302;10.064;2023-07-24T02:34:53;14.68;;;8.63;;
3653;SDS011;70277;54.302;10.064;2023-07-24T02:37:20;11.75;;;7.95;;
3653;SDS011;70277;54.302;10.064;2023-07-24T02:39:47;14.57;;;8.48;;
3653;SDS011;70277;54.302;10.064;2023-07-24T02:42:13;13.27;;;8.90;;
3653;SDS011;70277;54.302;10.064;2023-07-24T02:44:39;12.68;;;8.77;;
3653;SDS011;70277;54.302;10.064;2023-07-24T02:47:06;13.35;;;8.75;;
3653;SDS011;70277;54.302;10.064;2023-07-24T02:49:32;13.00;;;7.82;;
3653;SDS011;70277;54.302;10.064;2023-07-24T02:51:59;16.35;;;8.50;;
3653;SDS011;70277;54.302;10.064;2023-07-24T02:54:25;11.82;;;7.90;;
3653;SDS011;70277;54.302;10.064;2023-07-24T02:56:53;13.32;;;7.22;;
3653;SDS011;70277;54.302;10.064;2023-07-24T02:59:19;19.27;;;8.07;;
3653;SDS011;70277;54.302;10.064;2023-07-24T03:01:46;18.25;;;8.70;;
3653;SDS011;70277;54.302;10.064;2023-07-24T03:04:12;13.52;;;8.00;;
3653;SDS011;70277;54.302;10.064;2023-07-24T03:06:39;13.60;;;7.45;;
3653;SDS011;70277;54.302;10.064;2023-07-24T03:09:06;13.45;;;7.85;;
3653;SDS011;70277;54.302;10.064;2023-07-24T03:11:32;12.32;;;7.97;;
3653;SDS011;70277;54.302;10.064;2023-07-24T03:13:59;12.88;;;7.93;;
3653;SDS011;70277;54.302;10.064;2023-07-24T03:16:25;20.40;;;7.90;;
3653;SDS011;70277;54.302;10.064;2023-07-24T03:18:52;17.00;;;9.10;;
3653;SDS011;70277;54.302;10.064;2023-07-24T03:21:19;18.13;;;8.30;;
3653;SDS011;70277;54.302;10.064;2023-07-24T03:23:46;13.60;;;7.63;;
3653;SDS011;70277;54.302;10.064;2023-07-24T03:26:13;13.15;;;8.35;;
3653;SDS011;70277;54.302;10.064;2023-07-24T03:28:39;11.65;;;7.80;;
3653;SDS011;70277;54.302;10.064;2023-07-24T03:31:05;10.32;;;7.78;;
3653;SDS011;70277;54.302;10.064;2023-07-24T03:33:32;17.02;;;7.88;;
3653;SDS011;70277;54.302;10.064;2023-07-24T03:35:58;13.63;;;7.30;;
3653;SDS011;70277;54.302;10.064;2023-07-24T03:38:25;16.38;;;7.45;;
3653;SDS011;70277;54.302;10.064;2023-07-24T03:40:51;12.68;;;7.53;;
3653;SDS011;70277;54.302;10.064;2023-07-24T03:43:18;15.73;;;7.70;;
3653;SDS011;70277;54.302;10.064;2023-07-24T03:45:44;17.67;;;8.02;;
3653;SDS011;70277;54.302;10.064;2023-07-24T03:48:11;14.25;;;7.53;;
3653;SDS011;70277;54.302;10.064;2023-07-24T03:50:37;13.98;;;7.95;;
3653;SDS011;70277;54.302;10.064;2023-07-24T03:53:04;15.73;;;7.25;;
3653;SDS011;70277;54.302;10.064;2023-07-24T03:55:30;11.18;;;7.35;;
3653;SDS011;70277;54.302;10.064;2023-07-24T03:57:57;11.55;;;6.75;;
3653;SDS011;70277;54.302;10.064;2023-07-24T04:00:23;12.93;;;6.78;;
3653;SDS011;70277;54.302;10.064;2023-07-24T04:02:50;12.93;;;7.50;;
3653;SDS011;70277;54.302;10.064;2023-07-24T04:05:16;13.13;;;7.93;;
3653;SDS011;70277;54.302;10.064;2023-07-24T04:07:43;14.85;;;7.22;;
3653;SDS011;70277;54.302;10.064;2023-07-24T04:10:09;14.35;;;7.32;;
3653;SDS011;70277;54.302;10.064;2023-07-24T04:12:36;17.42;;;7.70;;
3653;SDS011;70277;54.302;10.064;2023-07-24T04:15:03;12.45;;;7.18;;
3653;SDS011;70277;54.302;10.064;2023-07-24T04:17:29;14.18;;;7.60;;
3653;SDS011;70277;54.302;10.064;2023-07-24T04:19:56;14.55;;;7.68;;
3653;SDS011;70277;54.302;10.064;2023-07-24T04:22:22;12.43;;;7.72;;
3653;SDS011;70277;54.302;10.064;2023-07-24T04:24:49;17.95;;;7.47;;
3653;SDS011;70277;54.302;10.064;2023-07-24T04:27:15;15.02;;;7.57;;
3653;SDS011;70277;54.302;10.064;2023-07-24T04:29:42;12.52;;;7.50;;
3653;SDS011;70277;54.302;10.064;2023-07-24T04:32:08;12.10;;;6.78;;
3653;SDS011;70277;54.302;10.064;2023-07-24T04:34:35;19.98;;;6.97;;
3653;SDS011;70277;54.302;10.064;2023-07-24T04:37:01;17.67;;;7.82;;
3653;SDS011;70277;54.302;10.064;2023-07-24T04:39:28;14.15;;;7.18;;
3653;SDS011;70277;54.302;10.064;2023-07-24T04:41:54;12.18;;;7.07;;
3653;SDS011;70277;54.302;10.064;2023-07-24T04:44:21;12.70;;;7.50;;
3653;SDS011;70277;54.302;10.064;2023-07-24T04:46:47;13.63;;;6.75;;
3653;SDS011;70277;54.302;10.064;2023-07-24T04:49:14;13.57;;;7.10;;
3653;SDS011;70277;54.302;10.064;2023-07-24T04:51:40;12.90;;;7.68;;
3653;SDS011;70277;54.302;10.064;2023-07-24T04:54:07;14.82;;;8.52;;
3653;SDS011;70277;54.302;10.064;2023-07-24T04:56:33;16.60;;;7.53;;
3653;SDS011;70277;54.302;10.064;2023-07-24T04:59:00;12.77;;;7.32;;
3653;SDS011;70277;54.302;10.064;2023-07-24T05:01:26;14.90;;;7.22;;
3653;SDS011;70277;54.302;10.064;2023-07-24T05:03:53;14.45;;;7.03;;
3653;SDS011;70277;54.302;10.064;2023-07-24T05:06:19;13.77;;;7.55;;
3653;SDS011;70277;54.302;10.064;2023-07-24T05:08:46;18.88;;;7.95;;
3653;SDS011;70277;54.302;10.064;2023-07-24T05:11:12;19.05;;;7.95;;
3653;SDS011;70277;54.302;10.064;2023-07-24T05:13:39;14.93;;;7.68;;
3653;SDS011;70277;54.302;10.064;2023-07-24T05:16:05;16.60;;;7.65;;
3653;SDS011;70277;54.302;10.064;2023-07-24T05:18:31;11.73;;;7.20;;
3653;SDS011;70277;54.302;10.064;2023-07-24T05:20:58;21.15;;;7.78;;
3653;SDS011;70277;54.302;10.064;2023-07-24T05:23:24;15.63;;;7.63;;
3653;SDS011;70277;54.302;10.064;2023-07-24T05:26:01;13.65;;;7.07;;
3653;SDS011;70277;54.302;10.064;2023-07-24T05:28:29;10.35;;;6.47;;
3653;SDS011;70277;54.302;10.064;2023-07-24T05:31:00;12.55;;;6.70;;
3653;SDS011;70277;54.302;10.064;2023-07-24T05:33:29;12.40;;;7.32;;
3653;SDS011;70277;54.302;10.064;2023-07-24T05:35:59;12.07;;;7.28;;
3653;SDS011;70277;54.302;10.064;2023-07-24T05:38:27;17.33;;;7.13;;
3653;SDS011;70277;54.302;10.064;2023-07-24T05:40:55;15.93;;;7.22;;
3653;SDS011;70277;54.302;10.064;2023-07-24T05:43:23;14.68;;;6.75;;
3653;SDS011;70277;54.302;10.064;2023-07-24T05:45:50;17.35;;;6.97;;
3653;SDS011;70277;54.302;10.064;2023-07-24T05:48:20;14.10;;;7.47;;
3653;SDS011;70277;54.302;10.064;2023-07-24T05:50:47;13.13;;;6.90;;
3653;SDS011;70277;54.302;10.064;2023-07-24T05:53:14;20.33;;;7.13;;
3653;SDS011;70277;54.302;10.064;2023-07-24T05:55:41;13.30;;;6.85;;
3653;SDS011;70277;54.302;10.064;2023-07-24T05:58:08;14.68;;;6.43;;
3653;SDS011;70277;54.302;10.064;2023-07-24T06:00:36;15.20;;;6.32;;
3653;SDS011;70277;54.302;10.064;2023-07-24T06:03:05;14.18;;;7.45;;
3653;SDS011;70277;54.302;10.064;2023-07-24T06:05:34;12.90;;;7.25;;
3653;SDS011;70277;54.302;10.064;2023-07-24T06:08:00;14.50;;;7.22;;
3653;SDS011;70277;54.302;10.064;2023-07-24T06:10:27;14.82;;;7.00;;
3653;SDS011;70277;54.302;10.064;2023-07-24T06:12:53;15.98;;;7.25;;
3653;SDS011;70277;54.302;10.064;2023-07-24T06:15:20;17.02;;;6.97;;
3653;SDS011;70277;54.302;10.064;2023-07-24T06:17:46;11.98;;;7.80;;
3653;SDS011;70277;54.302;10.064;2023-07-24T06:20:13;13.45;;;7.07;;
3653;SDS011;70277;54.302;10.064;2023-07-24T06:22:39;9.15;;;6.55;;
3653;SDS011;70277;54.302;10.064;2023-07-24T06:25:06;9.65;;;6.53;;
3653;SDS011;70277;54.302;10.064;2023-07-24T06:27:33;10.30;;;6.75;;
3653;SDS011;70277;54.302;10.064;2023-07-24T06:29:59;11.23;;;6.28;;
3653;SDS011;70277;54.302;10.064;2023-07-24T06:32:40;13.30;;;7.20;;
3653;SDS011;70277;54.302;10.064;2023-07-24T06:35:07;12.20;;;6.43;;
3653;SDS011;70277;54.302;10.064;2023-07-24T06:37:33;12.52;;;6.75;;
3653;SDS011;70277;54.302;10.064;2023-07-24T06:40:00;13.02;;;7.32;;
3653;SDS011;70277;54.302;10.064;2023-07-24T06:42:26;14.05;;;7.32;;
3653;SDS011;70277;54.302;10.064;2023-07-24T06:44:53;13.77;;;7.82;;
3653;SDS011;70277;54.302;10.064;2023-07-24T06:47:19;13.45;;;7.30;;
3653;SDS011;70277;54.302;10.064;2023-07-24T06:49:46;12.27;;;7.20;;
3653;SDS011;70277;54.302;10.064;2023-07-24T06:52:13;10.57;;;7.35;;
3653;SDS011;70277;54.302;10.064;2023-07-24T06:54:39;15.73;;;7.10;;
3653;SDS011;70277;54.302;10.064;2023-07-24T06:57:06;13.07;;;7.78;;
3653;SDS011;70277;54.302;10.064;2023-07-24T06:59:32;14.40;;;7.50;;
3653;SDS011;70277;54.302;10.064;2023-07-24T07:01:59;9.10;;;7.05;;
3653;SDS011;70277;54.302;10.064;2023-07-24T07:04:25;16.20;;;7.30;;
3653;SDS011;70277;54.302;10.064;2023-07-24T07:06:52;17.33;;;7.80;;
3653;SDS011;70277;54.302;10.064;2023-07-24T07:09:18;10.85;;;7.63;;
3653;SDS011;70277;54.302;10.064;2023-07-24T07:11:45;16.05;;;8.00;;
3653;SDS011;70277;54.302;10.064;2023-07-24T07:14:11;12.25;;;7.82;;
3653;SDS011;70277;54.302;10.064;2023-07-24T07:16:38;9.38;;;6.88;;
3653;SDS011;70277;54.302;10.064;2023-07-24T07:19:05;11.45;;;7.32;;
3653;SDS011;70277;54.302;10.064;2023-07-24T07:21:31;11.32;;;7.88;;
3653;SDS011;70277;54.302;10.064;2023-07-24T07:23:58;11.30;;;7.85;;
3653;SDS011;70277;54.302;10.064;2023-07-24T07:26:25;13.77;;;8.02;;
3653;SDS011;70277;54.302;10.064;2023-07-24T07:28:51;17.80;;;8.70;;
3653;SDS011;70277;54.302;10.064;2023-07-24T07:31:18;12.25;;;7.80;;
3653;SDS011;70277;54.302;10.064;2023-07-24T07:33:44;11.68;;;8.05;;
3653;SDS011;70277;54.302;10.064;2023-07-24T07:36:11;17.75;;;8.07;;
3653;SDS011;70277;54.302;10.064;2023-07-24T07:38:38;15.60;;;8.98;;
3653;SDS011;70277;54.302;10.064;2023-07-24T07:41:06;11.77;;;8.57;;
3653;SDS011;70277;54.302;10.064;2023-07-24T07:43:32;14.07;;;8.65;;
3653;SDS011;70277;54.302;10.064;2023-07-24T07:45:59;10.82;;;8.55;;
3653;SDS011;70277;54.302;10.064;2023-07-24T07:48:25;13.15;;;8.88;;
3653;SDS011;70277;54.302;10.064;2023-07-24T07:50:52;13.95;;;8.77;;
3653;SDS011;70277;54.302;10.064;2023-07-24T07:53:18;13.38;;;8.70;;
3653;SDS011;70277;54.302;10.064;2023-07-24T07:55:45;13.07;;;8.68;;
3653;SDS011;70277;54.302;10.064;2023-07-24T07:58:11;12.60;;;8.70;;
3653;SDS011;70277;54.302;10.064;2023-07-24T08:00:38;13.13;;;8.85;;
3653;SDS011;70277;54.302;10.064;2023-07-24T08:03:06;15.15;;;9.00;;
3653;SDS011;70277;54.302;10.064;2023-07-24T08:05:32;12.57;;;9.68;;
3653;SDS011;70277;54.302;10.064;2023-07-24T08:07:59;15.95;;;10.35;;
3653;SDS011;70277;54.302;10.064;2023-07-24T08:10:25;14.30;;;11.10;;
3653;SDS011;70277;54.302;10.064;2023-07-24T08:12:52;18.95;;;11.25;;
3653;SDS011;70277;54.302;10.064;2023-07-24T08:15:18;16.85;;;11.85;;
3653;SDS011;70277;54.302;10.064;2023-07-24T08:17:45;18.90;;;11.43;;
3653;SDS011;70277;54.302;10.064;2023-07-24T08:20:11;16.95;;;12.77;;
3653;SDS011;70277;54.302;10.064;2023-07-24T08:22:38;15.45;;;11.52;;
3653;SDS011;70277;54.302;10.064;2023-07-24T08:25:04;19.45;;;12.05;;
3653;SDS011;70277;54.302;10.064;2023-07-24T08:27:31;17.60;;;10.95;;
3653;SDS011;70277;54.302;10.064;2023-07-24T08:30:01;13.93;;;10.80;;
3653;SDS011;70277;54.302;10.064;2023-07-24T08:32:27;14.82;;;10.82;;
3653;SDS011;70277;54.302;10.064;2023-07-24T08:34:54;15.63;;;10.85;;
3653;SDS011;70277;54.302;10.064;2023-07-24T08:37:21;15.48;;;10.55;;
3653;SDS011;70277;54.302;10.064;2023-07-24T08:39:47;17.98;;;10.55;;
3653;SDS011;70277;54.302;10.064;2023-07-24T08:42:13;14.77;;;11.05;;
3653;SDS011;70277;54.302;10.064;2023-07-24T08:44:40;15.68;;;10.30;;
3653;SDS011;70277;54.302;10.064;2023-07-24T08:47:09;13.88;;;10.18;;
3653;SDS011;70277;54.302;10.064;2023-07-24T08:49:38;18.08;;;10.27;;
3653;SDS011;70277;54.302;10.064;2023-07-24T08:52:06;14.25;;;10.18;;
3653;SDS011;70277;54.302;10.064;2023-07-24T08:54:37;13.43;;;10.07;;
3653;SDS011;70277;54.302;10.064;2023-07-24T08:57:08;18.35;;;10.25;;
3653;SDS011;70277;54.302;10.064;2023-07-24T08:59:34;17.88;;;10.63;;
3653;SDS011;70277;54.302;10.064;2023-07-24T09:02:01;15.15;;;10.30;;
3653;SDS011;70277;54.302;10.064;2023-07-24T09:04:28;13.70;;;10.43;;
3653;SDS011;70277;54.302;10.064;2023-07-24T09:06:56;15.95;;;10.70;;
3653;SDS011;70277;54.302;10.064;2023-07-24T09:09:23;14.30;;;10.35;;
3653;SDS011;70277;54.302;10.064;2023-07-24T09:11:50;15.70;;;10.73;;
3653;SDS011;70277;54.302;10.064;2023-07-24T09:14:21;18.90;;;11.30;;
3653;SDS011;70277;54.302;10.064;2023-07-24T09:16:48;21.30;;;10.25;;
3653;SDS011;70277;54.302;10.064;2023-07-24T09:19:18;12.65;;;9.80;;
3653;SDS011;70277;54.302;10.064;2023-07-24T09:21:52;12.82;;;8.55;;
3653;SDS011;70277;54.302;10.064;2023-07-24T09:24:18;20.98;;;10.15;;
3653;SDS011;70277;54.302;10.064;2023-07-24T09:26:48;13.98;;;9.70;;
3653;SDS011;70277;54.302;10.064;2023-07-24T09:29:29;14.10;;;9.55;;
3653;SDS011;70277;54.302;10.064;2023-07-24T09:31:58;16.38;;;9.30;;
3653;SDS011;70277;54.302;10.064;2023-07-24T09:34:25;13.95;;;8.70;;
3653;SDS011;70277;54.302;10.064;2023-07-24T09:36:54;14.90;;;8.88;;
3653;SDS011;70277;54.302;10.064;2023-07-24T09:39:27;17.33;;;8.20;;
3653;SDS011;70277;54.302;10.064;2023-07-24T09:42:02;15.02;;;8.10;;
3653;SDS011;70277;54.302;10.064;2023-07-24T09:44:32;11.95;;;8.15;;
3653;SDS011;70277;54.302;10.064;2023-07-24T09:46:58;13.30;;;8.32;;
3653;SDS011;70277;54.302;10.064;2023-07-24T09:49:45;12.63;;;8.75;;
3653;SDS011;70277;54.302;10.064;2023-07-24T09:52:13;12.60;;;8.15;;
3653;SDS011;70277;54.302;10.064;2023-07-24T09:54:49;11.10;;;7.60;;
3653;SDS011;70277;54.302;10.064;2023-07-24T09:57:23;13.13;;;7.07;;
3653;SDS011;70277;54.302;10.064;2023-07-24T09:59:50;14.55;;;7.78;;
3653;SDS011;70277;54.302;10.064;2023-07-24T10:02:19;17.10;;;7.93;;
3653;SDS011;70277;54.302;10.064;2023-07-24T10:04:45;13.55;;;7.60;;
3653;SDS011;70277;54.302;10.064;2023-07-24T10:07:13;13.25;;;7.30;;
3653;SDS011;70277;54.302;10.064;2023-07-24T10:09:39;10.88;;;6.95;;
3653;SDS011;70277;54.302;10.064;2023-07-24T10:12:09;15.07;;;7.65;;
3653;SDS011;70277;54.302;10.064;2023-07-24T10:14:36;14.70;;;7.93;;
3653;SDS011;70277;54.302;10.064;2023-07-24T10:17:03;16.73;;;7.88;;
3653;SDS011;70277;54.302;10.064;2023-07-24T10:19:38;14.45;;;7.20;;
3653;SDS011;70277;54.302;10.064;2023-07-24T10:22:06;13.75;;;6.97;;
3653;SDS011;70277;54.302;10.064;2023-07-24T10:24:33;12.65;;;7.25;;
3653;SDS011;70277;54.302;10.064;2023-07-24T10:27:07;11.77;;;7.32;;
3653;SDS011;70277;54.302;10.064;2023-07-24T10:29:34;11.63;;;6.15;;
3653;SDS011;70277;54.302;10.064;2023-07-24T10:32:02;9.80;;;5.68;;
3653;SDS011;70277;54.302;10.064;2023-07-24T10:34:38;16.95;;;6.50;;
3653;SDS011;70277;54.302;10.064;2023-07-24T10:37:07;12.23;;;5.90;;
3653;SDS011;70277;54.302;10.064;2023-07-24T10:42:07;10.32;;;5.13;;
3653;SDS011;70277;54.302;10.064;2023-07-24T10:44:35;8.05;;;5.07;;
3653;SDS011;70277;54.302;10.064;2023-07-24T10:47:02;10.88;;;5.05;;
3653;SDS011;70277;54.302;10.064;2023-07-24T10:49:29;9.82;;;5.40;;
3653;SDS011;70277;54.302;10.064;2023-07-24T10:51:58;9.38;;;4.90;;
3653;SDS011;70277;54.302;10.064;2023-07-24T10:54:25;6.10;;;4.75;;
3653;SDS011;70277;54.302;10.064;2023-07-24T10:56:58;8.45;;;4.93;;
3653;SDS011;70277;54.302;10.064;2023-07-24T10:59:40;7.28;;;4.82;;
3653;SDS011;70277;54.302;10.064;2023-07-24T11:02:07;6.97;;;4.53;;
3653;SDS011;70277;54.302;10.064;2023-07-24T11:04:34;11.25;;;5.78;;
3653;SDS011;70277;54.302;10.064;2023-07-24T11:07:00;7.53;;;4.78;;
3653;SDS011;70277;54.302;10.064;2023-07-24T11:09:34;11.15;;;5.05;;
3653;SDS011;70277;54.302;10.064;2023-07-24T11:12:13;20.60;;;5.70;;
3653;SDS011;70277;54.302;10.064;2023-07-24T11:14:50;10.35;;;5.25;;
3653;SDS011;70277;54.302;10.064;2023-07-24T11:17:17;8.57;;;5.50;;
3653;SDS011;70277;54.302;10.064;2023-07-24T11:19:44;8.05;;;5.25;;
3653;SDS011;70277;54.302;10.064;2023-07-24T11:22:10;9.05;;;4.97;;
3653;SDS011;70277;54.302;10.064;2023-07-24T11:24:46;7.43;;;4.78;;
3653;SDS011;70277;54.302;10.064;2023-07-24T11:27:14;9.35;;;5.32;;
3653;SDS011;70277;54.302;10.064;2023-07-24T11:29:47;11.05;;;4.82;;
3653;SDS011;70277;54.302;10.064;2023-07-24T11:32:19;7.65;;;4.57;;
3653;SDS011;70277;54.302;10.064;2023-07-24T11:34:47;7.40;;;5.00;;
3653;SDS011;70277;54.302;10.064;2023-07-24T11:37:15;9.68;;;5.22;;
3653;SDS011;70277;54.302;10.064;2023-07-24T11:39:42;10.60;;;5.40;;
3653;SDS011;70277;54.302;10.064;2023-07-24T11:42:08;9.05;;;5.20;;
3653;SDS011;70277;54.302;10.064;2023-07-24T11:44:35;16.38;;;5.57;;
3653;SDS011;70277;54.302;10.064;2023-07-24T11:47:03;11.95;;;4.93;;
3653;SDS011;70277;54.302;10.064;2023-07-24T11:49:30;8.25;;;5.03;;
3653;SDS011;70277;54.302;10.064;2023-07-24T11:52:04;8.25;;;4.80;;
3653;SDS011;70277;54.302;10.064;2023-07-24T11:54:35;10.88;;;4.68;;
3653;SDS011;70277;54.302;10.064;2023-07-24T11:57:01;19.33;;;5.50;;
3653;SDS011;70277;54.302;10.064;2023-07-24T11:59:28;11.30;;;5.57;;
3653;SDS011;70277;54.302;10.064;2023-07-24T12:02:03;8.15;;;4.70;;
3653;SDS011;70277;54.302;10.064;2023-07-24T12:04:30;10.38;;;5.00;;
3653;SDS011;70277;54.302;10.064;2023-07-24T12:06:57;10.75;;;5.05;;
3653;SDS011;70277;54.302;10.064;2023-07-24T12:09:28;16.58;;;5.07;;
3653;SDS011;70277;54.302;10.064;2023-07-24T12:11:58;9.82;;;5.20;;
3653;SDS011;70277;54.302;10.064;2023-07-24T12:14:25;8.68;;;5.25;;
3653;SDS011;70277;54.302;10.064;2023-07-24T12:17:04;9.48;;;5.25;;
3653;SDS011;70277;54.302;10.064;2023-07-24T12:19:35;11.63;;;5.70;;
3653;SDS011;70277;54.302;10.064;2023-07-24T12:22:02;6.82;;;5.00;;
3653;SDS011;70277;54.302;10.064;2023-07-24T12:24:30;9.63;;;4.57;;
3653;SDS011;70277;54.302;10.064;2023-07-24T12:26:56;5.95;;;4.50;;
3653;SDS011;70277;54.302;10.064;2023-07-24T12:29:23;7.35;;;4.32;;
3653;SDS011;70277;54.302;10.064;2023-07-24T12:31:49;5.50;;;4.40;;
3653;SDS011;70277;54.302;10.064;2023-07-24T12:34:16;9.23;;;4.82;;
3653;SDS011;70277;54.302;10.064;2023-07-24T12:36:42;17.88;;;5.53;;
3653;SDS011;70277;54.302;10.064;2023-07-24T12:39:09;9.88;;;5.38;;
3653;SDS011;70277;54.302;10.064;2023-07-24T12:41:36;8.93;;;5.25;;
3653;SDS011;70277;54.302;10.064;2023-07-24T12:44:02;10.25;;;5.82;;
3653;SDS011;70277;54.302;10.064;2023-07-24T12:46:29;10.77;;;5.63;;
3653;SDS011;70277;54.302;10.064;2023-07-24T12:48:56;10.57;;;5.40;;
3653;SDS011;70277;54.302;10.064;2023-07-24T12:51:22;19.48;;;5.65;;
3653;SDS011;70277;54.302;10.064;2023-07-24T12:53:48;9.50;;;5.63;;
3653;SDS011;70277;54.302;10.064;2023-07-24T12:56:20;10.35;;;5.03;;
3653;SDS011;70277;54.302;10.064;2023-07-24T12:58:47;9.90;;;4.47;;
3653;SDS011;70277;54.302;10.064;2023-07-24T13:01:13;6.57;;;4.13;;
3653;SDS011;70277;54.302;10.064;2023-07-24T13:03:40;8.25;;;4.45;;
3653;SDS011;70277;54.302;10.064;2023-07-24T13:06:06;8.50;;;3.88;;
3653;SDS011;70277;54.302;10.064;2023-07-24T13:08:33;8.75;;;4.15;;
3653;SDS011;70277;54.302;10.064;2023-07-24T13:10:59;7.53;;;4.18;;
3653;SDS011;70277;54.302;10.064;2023-07-24T13:13:26;6.00;;;3.83;;
3653;SDS011;70277;54.302;10.064;2023-07-24T13:15:53;7.90;;;3.95;;
3653;SDS011;70277;54.302;10.064;2023-07-24T13:18:20;4.20;;;3.60;;
3653;SDS011;70277;54.302;10.064;2023-07-24T13:20:53;5.90;;;3.50;;
3653;SDS011;70277;54.302;10.064;2023-07-24T13:23:20;8.05;;;3.83;;
3653;SDS011;70277;54.302;10.064;2023-07-24T13:25:46;5.13;;;3.30;;
3653;SDS011;70277;54.302;10.064;2023-07-24T13:28:13;7.03;;;3.50;;
3653;SDS011;70277;54.302;10.064;2023-07-24T13:30:39;6.35;;;3.50;;
3653;SDS011;70277;54.302;10.064;2023-07-24T13:33:06;5.47;;;2.65;;
3653;SDS011;70277;54.302;10.064;2023-07-24T13:35:33;6.72;;;3.13;;
3653;SDS011;70277;54.302;10.064;2023-07-24T13:37:59;6.25;;;3.03;;
3653;SDS011;70277;54.302;10.064;2023-07-24T13:40:26;4.07;;;2.90;;
3653;SDS011;70277;54.302;10.064;2023-07-24T13:42:52;6.05;;;3.05;;
3653;SDS011;70277;54.302;10.064;2023-07-24T13:45:19;4.13;;;2.63;;
3653;SDS011;70277;54.302;10.064;2023-07-24T13:47:46;5.07;;;2.63;;
3653;SDS011;70277;54.302;10.064;2023-07-24T13:50:12;6.93;;;3.17;;
3653;SDS011;70277;54.302;10.064;2023-07-24T13:52:38;4.60;;;2.80;;
3653;SDS011;70277;54.302;10.064;2023-07-24T13:55:05;6.53;;;2.97;;
3653;SDS011;70277;54.302;10.064;2023-07-24T13:57:32;6.85;;;3.28;;
3653;SDS011;70277;54.302;10.064;2023-07-24T13:59:58;5.95;;;2.70;;
3653;SDS011;70277;54.302;10.064;2023-07-24T14:02:24;5.18;;;3.35;;
3653;SDS011;70277;54.302;10.064;2023-07-24T14:04:52;7.40;;;3.00;;
3653;SDS011;70277;54.302;10.064;2023-07-24T14:07:19;7.30;;;3.13;;
3653;SDS011;70277;54.302;10.064;2023-07-24T14:09:45;9.23;;;3.50;;
3653;SDS011;70277;54.302;10.064;2023-07-24T14:12:12;7.50;;;3.22;;
3653;SDS011;70277;54.302;10.064;2023-07-24T14:14:39;5.13;;;3.08;;
3653;SDS011;70277;54.302;10.064;2023-07-24T14:17:05;17.40;;;3.95;;
3653;SDS011;70277;54.302;10.064;2023-07-24T14:19:32;5.68;;;3.20;;
3653;SDS011;70277;54.302;10.064;2023-07-24T14:21:58;7.25;;;3.15;;
3653;SDS011;70277;54.302;10.064;2023-07-24T14:24:25;4.20;;;2.78;;
3653;SDS011;70277;54.302;10.064;2023-07-24T14:26:51;3.17;;;2.63;;
3653;SDS011;70277;54.302;10.064;2023-07-24T14:29:18;5.00;;;2.65;;
3653;SDS011;70277;54.302;10.064;2023-07-24T14:31:44;6.68;;;2.97;;
3653;SDS011;70277;54.302;10.064;2023-07-24T14:34:11;5.50;;;2.70;;
3653;SDS011;70277;54.302;10.064;2023-07-24T14:36:38;6.63;;;2.60;;
3653;SDS011;70277;54.302;10.064;2023-07-24T14:39:05;4.53;;;2.70;;
3653;SDS011;70277;54.302;10.064;2023-07-24T14:41:34;6.20;;;3.25;;
3653;SDS011;70277;54.302;10.064;2023-07-24T14:44:00;5.72;;;2.60;;